createdAt,value
2019-06-01T00:00:29.995Z,88.00
2019-06-01T00:02:59.900Z,87.80
2019-06-01T00:05:27.786Z,89.10
2019-06-01T00:07:55.751Z,89.20
2019-06-01T00:10:24.815Z,89.70
2019-06-01T00:12:52.788Z,89.60
2019-06-01T00:15:20.686Z,90.00
2019-06-01T00:17:49.975Z,90.20
2019-06-01T00:20:18.060Z,90.70
2019-06-01T00:22:47.414Z,90.80
2019-06-01T00:25:15.631Z,90.80
2019-06-01T00:27:44.697Z,91.20
2019-06-01T00:30:26.228Z,91.40
2019-06-01T00:32:43.009Z,91.40
2019-06-01T00:35:11.010Z,91.10
2019-06-01T00:37:39.021Z,91.60
2019-06-01T00:40:07.425Z,91.90
2019-06-01T00:42:35.529Z,91.80
2019-06-01T00:45:04.167Z,92.10
2019-06-01T00:47:32.160Z,91.90
2019-06-01T00:50:00.127Z,92.10
2019-06-01T00:52:28.096Z,92.30
2019-06-01T00:54:56.062Z,92.50
2019-06-01T00:57:24.104Z,92.50
2019-06-01T00:59:55.009Z,92.70
2019-06-01T01:02:23.090Z,92.80
2019-06-01T01:05:11.698Z,93.10
2019-06-01T01:07:39.693Z,93.00
2019-06-01T01:10:07.804Z,93.20
2019-06-01T01:12:55.439Z,93.30
2019-06-01T01:15:23.324Z,93.60
2019-06-01T01:17:52.418Z,94.00
2019-06-01T01:20:21.274Z,94.10
2019-06-01T01:22:50.213Z,94.40
2019-06-01T01:25:19.303Z,94.00
2019-06-01T01:27:49.244Z,94.10
2019-06-01T01:30:17.506Z,94.10
2019-06-01T01:32:45.508Z,93.90
2019-06-01T01:35:13.457Z,94.10
2019-06-01T01:37:41.760Z,94.00
2019-06-01T01:40:10.157Z,93.80
2019-06-01T01:42:39.149Z,93.80
2019-06-01T01:45:08.678Z,93.60
2019-06-01T01:47:36.719Z,93.50
2019-06-01T01:50:06.006Z,93.40
2019-06-01T01:52:33.886Z,93.10
2019-06-01T01:55:03.228Z,93.20
2019-06-01T01:57:31.506Z,93.10
2019-06-01T01:59:59.519Z,93.00
2019-06-01T02:02:27.524Z,93.40
2019-06-01T02:04:55.845Z,93.30
2019-06-01T02:07:23.815Z,93.60
2019-06-01T02:09:52.955Z,94.00
2019-06-01T02:12:22.551Z,93.90
2019-06-01T02:14:51.643Z,94.30
2019-06-01T02:17:19.743Z,94.20
2019-06-01T02:19:47.732Z,94.30
2019-06-01T02:22:15.688Z,94.40
2019-06-01T02:24:43.850Z,94.90
2019-06-01T02:27:12.984Z,95.00
2019-06-01T02:29:40.994Z,95.00
2019-06-01T02:32:08.994Z,94.90
2019-06-01T02:34:50.595Z,95.00
2019-06-01T02:37:18.539Z,95.10
2019-06-01T02:39:46.510Z,95.50
2019-06-01T02:42:15.012Z,95.20
2019-06-01T02:44:43.017Z,95.60
2019-06-01T02:47:11.049Z,95.70
2019-06-01T02:49:39.173Z,95.70
2019-06-01T02:52:08.197Z,95.50
2019-06-01T02:54:36.285Z,95.70
2019-06-01T02:57:04.348Z,95.80
2019-06-01T02:59:32.410Z,95.90
2019-06-01T03:02:06.715Z,95.90
2019-06-01T03:04:30.515Z,95.80
2019-06-01T03:06:59.509Z,96.20
2019-06-01T03:09:29.151Z,96.50
2019-06-01T03:12:00.927Z,96.40
2019-06-01T03:14:32.954Z,96.50
2019-06-01T03:17:01.880Z,96.30
2019-06-01T03:19:33.021Z,96.30
2019-06-01T03:22:03.705Z,96.40
2019-06-01T03:24:35.891Z,96.60
2019-06-01T03:27:04.791Z,96.30
2019-06-01T03:29:38.308Z,96.50
2019-06-01T03:32:23.985Z,96.50
2019-06-01T03:34:36.330Z,96.40
2019-06-01T03:37:04.962Z,96.50
2019-06-01T03:39:33.705Z,96.30
2019-06-01T03:42:03.183Z,96.10
2019-06-01T03:44:31.381Z,96.20
2019-06-01T03:46:59.323Z,96.20
2019-06-01T03:49:27.208Z,96.10
2019-06-01T03:51:55.429Z,95.80
2019-06-01T03:54:23.408Z,96.00
2019-06-01T03:56:51.356Z,95.90
2019-06-01T03:59:19.305Z,95.80
2019-06-01T04:01:47.354Z,95.70
2019-06-01T04:04:15.225Z,95.50
2019-06-01T04:06:43.094Z,95.40
2019-06-01T04:09:11.889Z,95.50
2019-06-01T04:11:39.844Z,95.40
2019-06-01T04:14:07.841Z,95.40
2019-06-01T04:16:35.733Z,94.70
2019-06-01T04:19:03.814Z,94.60
2019-06-01T04:21:31.760Z,94.90
2019-06-01T04:23:59.627Z,94.50
2019-06-01T04:26:27.508Z,94.40
2019-06-01T04:28:56.167Z,94.10
2019-06-01T04:31:24.087Z,94.20
2019-06-01T04:33:52.054Z,93.90
2019-06-01T04:36:19.964Z,93.90
2019-06-01T04:38:47.908Z,93.90
2019-06-01T04:41:15.790Z,93.80
2019-06-01T04:43:43.715Z,93.50
2019-06-01T04:46:12.390Z,93.20
2019-06-01T04:48:40.692Z,93.50
2019-06-01T04:51:08.855Z,93.80
2019-06-01T04:53:36.802Z,93.70
2019-06-01T04:56:04.879Z,93.60
2019-06-01T04:58:32.869Z,93.10
2019-06-01T05:01:00.855Z,92.90
2019-06-01T05:03:28.788Z,92.20
2019-06-01T05:05:56.832Z,92.00
2019-06-01T05:08:24.771Z,91.40
2019-06-01T05:10:52.705Z,91.00
2019-06-01T05:13:20.538Z,90.10
2019-06-01T05:15:48.471Z,90.20
2019-06-01T05:18:19.525Z,89.00
2019-06-01T05:20:46.728Z,88.10
2019-06-01T05:23:14.890Z,87.50
2019-06-01T05:25:42.873Z,88.20
2019-06-01T05:28:11.238Z,89.20
2019-06-01T05:30:39.222Z,88.70
2019-06-01T05:33:23.611Z,88.30
2019-06-01T05:35:37.291Z,86.80
2019-06-01T05:38:05.314Z,86.10
2019-06-01T05:40:33.221Z,85.60
2019-06-01T05:43:01.476Z,84.40
2019-06-01T05:45:29.529Z,82.60
2019-06-01T05:47:57.451Z,81.50
2019-06-01T05:50:25.324Z,80.60
2019-06-01T05:52:53.362Z,80.40
2019-06-01T05:55:21.267Z,77.90
2019-06-01T05:57:49.214Z,76.90
2019-06-01T06:00:19.425Z,77.70
2019-06-01T06:02:47.332Z,77.20
2019-06-01T06:05:15.272Z,76.10
2019-06-01T06:07:43.258Z,76.00
2019-06-01T06:10:11.880Z,74.30
2019-06-01T06:12:39.891Z,71.20
2019-06-01T06:15:08.090Z,70.40
2019-06-01T06:17:36.008Z,71.70
2019-06-01T06:20:06.580Z,71.50
2019-06-01T06:22:34.600Z,71.70
2019-06-01T06:27:45.485Z,71.50
2019-06-01T06:30:14.806Z,70.90
2019-06-01T06:32:42.861Z,69.40
2019-06-01T06:35:10.903Z,68.90
2019-06-01T06:37:42.188Z,69.20
2019-06-01T06:40:09.094Z,67.90
2019-06-01T06:42:37.041Z,68.30
2019-06-01T06:45:06.728Z,67.60
2019-06-01T06:47:35.704Z,68.20
2019-06-01T06:50:03.867Z,68.10
2019-06-01T06:52:31.847Z,67.90
2019-06-01T06:54:59.860Z,68.30
2019-06-01T06:57:27.760Z,67.70
2019-06-01T06:59:55.733Z,67.10
2019-06-01T07:02:24.927Z,67.30
2019-06-01T07:04:52.971Z,66.50
2019-06-01T07:07:21.708Z,65.40
2019-06-01T07:09:50.252Z,64.40
2019-06-01T07:12:19.202Z,63.50
2019-06-01T07:14:47.446Z,63.40
2019-06-01T07:17:15.977Z,63.60
2019-06-01T07:19:44.133Z,63.70
2019-06-01T07:22:12.016Z,62.30
2019-06-01T07:24:39.923Z,61.80
2019-06-01T07:27:07.795Z,60.90
2019-06-01T07:29:35.733Z,59.60
2019-06-01T07:32:03.588Z,58.80
2019-06-01T07:34:41.173Z,57.30
2019-06-01T07:37:01.426Z,57.70
2019-06-01T07:39:29.357Z,57.20
2019-06-01T07:41:57.246Z,56.10
2019-06-01T07:44:25.285Z,56.70
2019-06-01T07:46:53.250Z,56.00
2019-06-01T07:49:21.217Z,55.20
2019-06-01T07:51:49.250Z,53.60
2019-06-01T07:54:17.220Z,51.80
2019-06-01T07:56:45.139Z,53.60
2019-06-01T07:59:13.274Z,54.90
2019-06-01T08:01:41.144Z,53.10
2019-06-01T08:04:09.032Z,51.90
2019-06-01T08:06:36.897Z,52.10
2019-06-01T08:09:07.042Z,51.80
2019-06-01T08:11:35.258Z,51.40
2019-06-01T08:14:04.419Z,51.40
2019-06-01T08:16:32.365Z,51.30
2019-06-01T08:19:00.278Z,50.90
2019-06-01T08:21:28.232Z,51.00
2019-06-01T08:23:56.069Z,51.10
2019-06-01T08:26:24.408Z,50.90
2019-06-01T08:28:52.341Z,50.60
2019-06-01T08:31:20.198Z,50.80
2019-06-01T08:33:48.182Z,51.50
2019-06-01T08:36:16.032Z,49.80
2019-06-01T08:38:45.120Z,49.20
2019-06-01T08:41:13.037Z,49.10
2019-06-01T08:43:40.969Z,48.40
2019-06-01T08:46:08.909Z,48.40
2019-06-01T08:48:36.798Z,48.60
2019-06-01T08:51:04.689Z,47.60
2019-06-01T08:53:32.622Z,47.20
2019-06-01T08:56:00.538Z,47.30
2019-06-01T08:58:28.396Z,47.20
2019-06-01T09:00:56.395Z,47.20
2019-06-01T09:03:25.729Z,47.80
2019-06-01T09:05:53.815Z,46.40
2019-06-01T09:08:23.963Z,46.30
2019-06-01T09:10:51.791Z,46.40
2019-06-01T09:13:19.737Z,47.30
2019-06-01T09:15:47.747Z,46.20
2019-06-01T09:18:17.731Z,45.80
2019-06-01T09:20:45.680Z,45.50
2019-06-01T09:23:13.604Z,45.40
2019-06-01T09:25:41.607Z,43.90
2019-06-01T09:28:09.603Z,43.30
2019-06-01T09:30:37.518Z,43.30
2019-06-01T09:33:05.640Z,43.10
2019-06-01T09:35:52.555Z,42.30
2019-06-01T09:38:03.542Z,42.70
2019-06-01T09:40:33.103Z,40.50
2019-06-01T09:43:01.532Z,38.60
2019-06-01T09:45:30.184Z,37.50
2019-06-01T09:47:58.078Z,36.70
2019-06-01T09:50:27.179Z,37.40
2019-06-01T09:52:55.170Z,39.00
2019-06-01T09:55:23.157Z,37.90
2019-06-01T09:57:51.177Z,35.40
2019-06-01T10:00:20.160Z,36.50
2019-06-01T10:02:48.072Z,36.50
2019-06-01T10:05:16.102Z,36.30
2019-06-01T10:07:44.287Z,36.40
2019-06-01T10:10:14.273Z,36.50
2019-06-01T10:12:42.363Z,34.20
2019-06-01T10:15:12.265Z,33.80
2019-06-01T10:17:40.180Z,34.40
2019-06-01T10:20:08.299Z,34.60
2019-06-01T10:22:37.207Z,34.60
2019-06-01T10:25:06.356Z,34.80
2019-06-01T10:27:34.547Z,33.70
2019-06-01T10:30:02.896Z,33.40
2019-06-01T10:32:32.493Z,34.20
2019-06-01T10:35:01.860Z,33.40
2019-06-01T10:37:31.255Z,33.60
2019-06-01T10:39:59.466Z,33.60
2019-06-01T10:42:27.429Z,32.70
2019-06-01T10:44:55.381Z,31.90
2019-06-01T10:47:23.327Z,31.90
2019-06-01T10:49:53.965Z,30.00
2019-06-01T10:52:21.930Z,30.70
2019-06-01T10:54:49.810Z,31.30
2019-06-01T10:57:17.799Z,31.60
2019-06-01T10:59:45.871Z,30.20
2019-06-01T11:02:13.811Z,29.40
2019-06-01T11:04:43.236Z,30.20
2019-06-01T11:07:11.741Z,30.30
2019-06-01T11:09:39.720Z,30.30
2019-06-01T11:12:08.173Z,29.60
2019-06-01T11:14:37.093Z,30.10
2019-06-01T11:17:05.471Z,30.00
2019-06-01T11:19:33.372Z,30.10
2019-06-01T11:22:01.365Z,30.10
2019-06-01T11:24:29.267Z,30.20
2019-06-01T11:26:57.180Z,30.20
2019-06-01T11:29:25.062Z,30.60
2019-06-01T11:31:53.092Z,29.80
2019-06-01T11:34:21.193Z,29.70
2019-06-01T11:37:04.540Z,29.00
2019-06-01T11:39:19.018Z,29.70
2019-06-01T11:41:46.959Z,28.50
2019-06-01T11:44:14.931Z,29.20
2019-06-01T11:46:43.085Z,29.70
2019-06-01T11:49:10.992Z,29.70
2019-06-01T11:51:39.421Z,29.30
2019-06-01T11:54:07.431Z,28.20
2019-06-01T11:56:35.310Z,27.80
2019-06-01T11:59:03.329Z,28.50
2019-06-01T12:01:31.334Z,27.40
2019-06-01T12:03:59.224Z,26.30
2019-06-01T12:06:27.148Z,26.80
2019-06-01T12:08:55.040Z,27.50
2019-06-01T12:11:23.315Z,27.40
2019-06-01T12:13:51.246Z,27.60
2019-06-01T12:16:20.015Z,28.60
2019-06-01T12:18:47.969Z,28.20
2019-06-01T12:21:15.858Z,27.80
2019-06-01T12:23:43.704Z,27.40
2019-06-01T12:26:11.589Z,27.60
2019-06-01T12:28:39.670Z,27.60
2019-06-01T12:31:07.622Z,28.00
2019-06-01T12:33:35.537Z,26.90
2019-06-01T12:36:05.273Z,27.80
2019-06-01T12:38:51.752Z,26.90
2019-06-01T12:41:22.043Z,26.70
2019-06-01T12:44:08.499Z,26.70
2019-06-01T12:46:36.784Z,26.90
2019-06-01T12:49:06.101Z,26.10
2019-06-01T12:51:34.281Z,26.70
2019-06-01T12:54:02.422Z,26.60
2019-06-01T12:56:30.362Z,27.10
2019-06-01T12:58:58.338Z,26.10
2019-06-01T13:01:26.228Z,25.80
2019-06-01T13:03:54.140Z,24.80
2019-06-01T13:06:22.090Z,25.00
2019-06-01T13:08:50.153Z,24.20
2019-06-01T13:11:19.927Z,23.80
2019-06-01T13:13:51.469Z,24.30
2019-06-01T13:16:19.390Z,23.90
2019-06-01T13:18:47.723Z,23.60
2019-06-01T13:21:15.721Z,23.00
2019-06-01T13:23:43.815Z,22.40
2019-06-01T13:26:11.801Z,21.40
2019-06-01T13:28:40.233Z,22.30
2019-06-01T13:31:08.312Z,21.00
2019-06-01T13:33:36.295Z,20.00
2019-06-01T13:36:04.319Z,20.00
2019-06-01T13:38:32.345Z,19.10
2019-06-01T13:41:00.437Z,19.80
2019-06-01T13:43:28.500Z,19.70
2019-06-01T13:45:56.423Z,18.30
2019-06-01T13:48:24.332Z,18.90
2019-06-01T13:50:52.317Z,17.30
2019-06-01T13:53:20.302Z,16.50
2019-06-01T13:55:48.463Z,17.30
2019-06-01T13:58:16.389Z,18.30
2019-06-01T14:00:44.357Z,18.50
2019-06-01T14:03:12.270Z,18.30
2019-06-01T14:05:40.241Z,16.80
2019-06-01T14:08:08.244Z,15.70
2019-06-01T14:10:36.141Z,15.20
2019-06-01T14:13:05.375Z,14.90
2019-06-01T14:15:33.539Z,14.50
2019-06-01T14:18:01.648Z,13.60
2019-06-01T14:20:29.519Z,13.30
2019-06-01T14:22:57.593Z,13.70
2019-06-01T14:25:25.587Z,14.10
2019-06-01T14:27:54.431Z,14.90
2019-06-01T14:30:24.341Z,15.40
2019-06-01T14:32:54.430Z,15.70
2019-06-01T14:35:22.441Z,16.50
2019-06-01T14:37:51.528Z,16.50
2019-06-01T14:40:20.118Z,16.70
2019-06-01T14:42:49.035Z,17.70
2019-06-01T14:45:18.207Z,17.70
2019-06-01T14:47:47.168Z,16.60
2019-06-01T14:50:15.805Z,15.60
2019-06-01T14:52:43.797Z,15.40
2019-06-01T14:55:12.006Z,15.90
2019-06-01T14:57:39.910Z,15.00
2019-06-01T15:00:08.656Z,15.60
2019-06-01T15:02:36.610Z,14.70
2019-06-01T15:05:05.488Z,14.20
2019-06-01T15:07:33.457Z,14.10
2019-06-01T15:10:01.491Z,13.60
2019-06-01T15:12:29.448Z,14.10
2019-06-01T15:14:57.613Z,14.10
2019-06-01T15:17:25.647Z,15.10
2019-06-01T15:19:54.108Z,15.70
2019-06-01T15:22:22.197Z,16.20
2019-06-01T15:24:50.418Z,16.50
2019-06-01T15:27:18.439Z,16.80
2019-06-01T15:29:47.558Z,16.60
2019-06-01T15:32:15.447Z,17.00
2019-06-01T15:34:43.316Z,16.80
2019-06-01T15:37:11.262Z,16.20
2019-06-01T15:39:39.251Z,16.10
2019-06-01T15:42:07.275Z,16.00
2019-06-01T15:44:35.220Z,15.30
2019-06-01T15:47:03.096Z,15.90
2019-06-01T15:49:31.221Z,15.60
2019-06-01T15:51:59.907Z,15.60
2019-06-01T15:54:27.952Z,15.60
2019-06-01T15:56:56.325Z,14.90
2019-06-01T15:59:24.435Z,14.50
2019-06-01T16:01:52.988Z,14.90
2019-06-01T16:04:21.106Z,14.90
2019-06-01T16:06:49.013Z,14.50
2019-06-01T16:09:16.948Z,15.40
2019-06-01T16:11:44.869Z,14.70
2019-06-01T16:14:12.856Z,15.00
2019-06-01T16:16:40.849Z,15.30
2019-06-01T16:19:08.791Z,15.40
2019-06-01T16:21:36.787Z,15.70
2019-06-01T16:24:04.987Z,16.20
2019-06-01T16:26:32.886Z,16.80
2019-06-01T16:29:00.911Z,18.50
2019-06-01T16:31:28.883Z,18.30
2019-06-01T16:33:56.854Z,19.70
2019-06-01T16:36:24.830Z,19.20
2019-06-01T16:38:52.894Z,19.80
2019-06-01T16:41:20.820Z,20.40
2019-06-01T16:43:48.722Z,19.90
2019-06-01T16:46:16.858Z,19.90
2019-06-01T16:48:44.824Z,18.90
2019-06-01T16:51:12.704Z,20.30
2019-06-01T16:53:40.651Z,21.00
2019-06-01T16:56:08.643Z,21.40
2019-06-01T16:58:36.514Z,22.40
2019-06-01T17:01:05.106Z,22.60
2019-06-01T17:03:33.170Z,22.80
2019-06-01T17:06:01.205Z,22.80
2019-06-01T17:08:29.073Z,23.30
2019-06-01T17:10:57.073Z,23.70
2019-06-01T17:13:25.080Z,23.40
2019-06-01T17:15:53.052Z,23.10
2019-06-01T17:18:21.268Z,23.30
2019-06-01T17:20:51.164Z,23.10
2019-06-01T17:23:28.605Z,23.00
2019-06-01T17:25:49.384Z,23.40
2019-06-01T17:28:17.363Z,23.10
2019-06-01T17:30:45.453Z,22.80
2019-06-01T17:33:13.453Z,22.90
2019-06-01T17:35:41.382Z,23.20
2019-06-01T17:38:09.343Z,22.80
2019-06-01T17:40:42.256Z,22.80
2019-06-01T17:43:07.216Z,22.80
2019-06-01T17:45:35.302Z,22.40
2019-06-01T17:48:18.209Z,22.40
2019-06-01T17:50:34.885Z,23.00
2019-06-01T17:53:02.992Z,23.30
2019-06-01T17:55:33.460Z,23.10
2019-06-01T17:58:01.629Z,23.10
2019-06-01T18:00:30.138Z,23.30
2019-06-01T18:02:58.225Z,22.70
2019-06-01T18:05:26.192Z,22.60
2019-06-01T18:07:54.273Z,22.70
2019-06-01T18:10:23.366Z,22.60
2019-06-01T18:12:51.251Z,22.90
2019-06-01T18:15:20.230Z,22.70
2019-06-01T18:17:48.289Z,22.80
2019-06-01T18:20:17.115Z,22.70
2019-06-01T18:22:45.209Z,22.60
2019-06-01T18:25:19.286Z,22.90
2019-06-01T18:27:47.373Z,22.50
2019-06-01T18:30:15.676Z,23.00
2019-06-01T18:32:43.768Z,23.60
2019-06-01T18:35:13.354Z,24.00
2019-06-01T18:37:41.720Z,24.40
2019-06-01T18:40:09.914Z,24.50
2019-06-01T18:42:38.089Z,25.20
2019-06-01T18:45:07.779Z,25.50
2019-06-01T18:47:36.368Z,25.60
2019-06-01T18:50:07.912Z,25.90
2019-06-01T18:52:37.808Z,26.00
2019-06-01T18:55:06.505Z,26.10
2019-06-01T18:57:38.375Z,26.40
2019-06-01T19:00:10.581Z,26.70
2019-06-01T19:02:36.975Z,27.10
2019-06-01T19:05:06.969Z,27.70
2019-06-01T19:07:35.140Z,28.80
2019-06-01T19:10:03.456Z,28.80
2019-06-01T19:12:31.391Z,29.10
2019-06-01T19:14:59.426Z,31.50
2019-06-01T19:17:27.791Z,29.00
2019-06-01T19:19:55.837Z,31.90
2019-06-01T19:22:23.772Z,32.50
2019-06-01T19:24:51.822Z,33.00
2019-06-01T19:27:19.869Z,33.90
2019-06-01T19:29:47.768Z,35.60
2019-06-01T19:32:19.632Z,38.00
2019-06-01T19:34:46.045Z,38.50
2019-06-01T19:37:15.175Z,39.00
2019-06-01T19:39:45.963Z,39.30
2019-06-01T19:42:13.923Z,40.50
2019-06-01T19:44:41.931Z,41.40
2019-06-01T19:47:09.925Z,41.90
2019-06-01T19:49:37.875Z,42.50
2019-06-01T19:52:06.591Z,44.00
2019-06-01T19:54:34.786Z,44.70
2019-06-01T19:57:02.661Z,45.60
2019-06-01T19:59:30.805Z,46.30
2019-06-01T20:01:58.973Z,46.80
2019-06-01T20:04:26.973Z,47.40
2019-06-01T20:06:55.053Z,47.90
2019-06-01T20:09:23.267Z,48.80
2019-06-01T20:12:01.243Z,49.00
2019-06-01T20:14:22.542Z,49.90
2019-06-01T20:16:50.797Z,50.00
2019-06-01T20:19:19.853Z,50.30
2019-06-01T20:21:47.914Z,51.00
2019-06-01T20:24:17.379Z,51.90
2019-06-01T20:26:49.180Z,53.30
2019-06-01T20:29:15.674Z,53.90
2019-06-01T20:31:43.667Z,54.40
2019-06-01T20:34:14.225Z,54.80
2019-06-01T20:36:42.530Z,55.20
2019-06-01T20:39:12.064Z,54.70
2019-06-01T20:41:40.233Z,54.60
2019-06-01T20:44:08.737Z,55.20
2019-06-01T20:46:36.782Z,53.40
2019-06-01T20:49:04.780Z,54.40
2019-06-01T20:51:33.388Z,54.50
2019-06-01T20:54:01.462Z,54.60
2019-06-01T20:56:29.717Z,56.00
2019-06-01T20:58:58.021Z,56.00
2019-06-01T21:01:25.966Z,56.10
2019-06-01T21:03:54.140Z,56.30
2019-06-01T21:06:22.525Z,56.10
2019-06-01T21:08:50.767Z,55.60
2019-06-01T21:11:19.997Z,55.60
2019-06-01T21:13:48.172Z,55.10
2019-06-01T21:16:16.289Z,53.90
2019-06-01T21:18:44.518Z,53.50
2019-06-01T21:21:14.273Z,54.90
2019-06-01T21:23:42.545Z,56.10
2019-06-01T21:26:10.802Z,56.20
2019-06-01T21:28:38.744Z,56.30
2019-06-01T21:31:06.918Z,57.30
2019-06-01T21:33:34.776Z,56.90
2019-06-01T21:36:02.795Z,57.30
2019-06-01T21:38:30.669Z,57.50
2019-06-01T21:40:58.580Z,57.30
2019-06-01T21:43:35.005Z,59.20
2019-06-01T21:45:56.394Z,59.40
2019-06-01T21:48:24.481Z,59.50
2019-06-01T21:50:52.601Z,60.10
2019-06-01T21:53:20.568Z,60.90
2019-06-01T21:55:49.893Z,61.30
2019-06-01T21:58:18.809Z,61.30
2019-06-01T22:00:47.620Z,61.50
2019-06-01T22:03:16.822Z,62.10
2019-06-01T22:05:45.038Z,62.20
2019-06-01T22:08:13.491Z,63.00
2019-06-01T22:10:41.413Z,63.50
2019-06-01T22:13:18.486Z,63.40
2019-06-01T22:15:39.211Z,63.50
2019-06-01T22:18:07.141Z,63.80
2019-06-01T22:20:35.144Z,63.60
2019-06-01T22:23:04.059Z,63.70
2019-06-01T22:25:32.071Z,63.90
2019-06-01T22:28:00.061Z,64.40
2019-06-01T22:30:30.914Z,64.80
2019-06-01T22:32:58.970Z,65.50
2019-06-01T22:35:27.092Z,65.60
2019-06-01T22:37:54.961Z,66.60
2019-06-01T22:40:36.007Z,66.30
2019-06-01T22:43:07.786Z,67.50
2019-06-01T22:45:36.442Z,67.10
2019-06-01T22:48:04.464Z,67.60
2019-06-01T22:50:33.189Z,67.50
2019-06-01T22:53:01.271Z,67.50
2019-06-01T22:55:29.253Z,68.00
2019-06-01T22:57:57.279Z,69.00
2019-06-01T23:00:25.833Z,69.10
2019-06-01T23:02:54.088Z,69.50
2019-06-01T23:05:22.970Z,69.20
2019-06-01T23:07:51.138Z,69.80
2019-06-01T23:10:19.031Z,71.10
2019-06-01T23:12:47.033Z,71.50
2019-06-01T23:15:15.339Z,71.50
2019-06-01T23:17:43.295Z,72.10
2019-06-01T23:20:11.446Z,72.00
2019-06-01T23:22:39.519Z,72.20
2019-06-01T23:25:07.727Z,72.10
2019-06-01T23:27:35.850Z,72.30
2019-06-01T23:30:05.135Z,72.50
2019-06-01T23:32:33.265Z,73.30
2019-06-01T23:35:01.400Z,73.60
2019-06-01T23:37:29.410Z,73.70
2019-06-01T23:39:57.381Z,73.70
2019-06-01T23:42:26.779Z,74.10
2019-06-01T23:44:55.117Z,74.10
2019-06-01T23:47:23.361Z,74.90
2019-06-01T23:49:51.268Z,75.20
2019-06-01T23:52:19.318Z,75.00
2019-06-01T23:54:47.154Z,76.00
2019-06-01T23:57:16.244Z,75.90
2019-06-01T23:59:44.366Z,76.30
